aviador You're here:

RCFN Decoded Metar

FENGNIN in TAIWAN
Report Time2018-06-23 05:30:00
UTC Time2018-06-23 06:01:20
Flight Rules vfr VFR
Wind190° at 11 kt
W.Decomp.*RWY 22: 9.8 kt HW 5 kt LCW
W.Rank190° ranks 12
Current wind is above 190° avg. (8.2)
Visibility9999 m
Phenomena:N/A
Clouds:Few 025 Hf
Scattered 300 Hf
Expected CloudBase > 3,200 ft AGL from Temp-Dew spread
CeilingNone
Temp33°C (ISA +18)
Dew Point25°C (63% RH)
Heat Index40.6°C
QNH1006 hPa
Density Alt2,871 ft
Elevation138 ft
Report Wrong Elevation
Raw Report
RCFN 230530Z 19011KT 150V230 9999 FEW025 SCT300 33/25 Q1006 NOSIG
RMK 19010G20KT/R04 A2973=

Extra information for RCFN:More info

Airport Information Weather charts Add Link Nearby Venues Social comments